createdAt,value
2023-01-29T00:01:48.837Z,102192.56
2023-01-29T00:04:15.297Z,102195.13
2023-01-29T00:06:41.717Z,102189.56
2023-01-29T00:09:08.122Z,102183.41
2023-01-29T00:11:35.206Z,102179.44
2023-01-29T00:14:01.688Z,102171.94
2023-01-29T00:16:28.120Z,102174.16
2023-01-29T00:18:54.587Z,102175.97
2023-01-29T00:21:22.278Z,102165.44
2023-01-29T00:23:49.405Z,102155.22
2023-01-29T00:26:16.831Z,102151.63
2023-01-29T00:28:43.472Z,102145.47
2023-01-29T00:31:18.280Z,102150.88
2023-01-29T00:33:44.784Z,102147.59
2023-01-29T00:36:12.424Z,102143.25
2023-01-29T00:38:39.453Z,102145.03
2023-01-29T00:41:29.473Z,102134.09
2023-01-29T00:44:14.462Z,102126.44
2023-01-29T00:46:41.159Z,102121.69
2023-01-29T00:49:07.835Z,102117.66
2023-01-29T00:51:34.548Z,102116.47
2023-01-29T00:54:01.209Z,102115.13
2023-01-29T00:56:28.903Z,102117.88
2023-01-29T00:58:55.825Z,102111.59
2023-01-29T01:01:42.957Z,102116.25
2023-01-29T01:04:10.736Z,102119.09
2023-01-29T01:06:38.188Z,102116.16
2023-01-29T01:09:23.695Z,102119.31
2023-01-29T01:11:50.253Z,102110.16
2023-01-29T01:14:16.678Z,102112.28
2023-01-29T01:16:44.970Z,102108.56
2023-01-29T01:19:11.525Z,102114.69
2023-01-29T01:21:37.955Z,102116.81
2023-01-29T01:24:05.873Z,102109.66
2023-01-29T01:26:32.878Z,102106.94
2023-01-29T01:28:59.472Z,102108.00
2023-01-29T01:31:26.036Z,102111.19
2023-01-29T01:33:54.254Z,102113.13
2023-01-29T01:36:20.752Z,102104.88
2023-01-29T01:38:47.268Z,102103.72
2023-01-29T01:41:19.271Z,102106.56
2023-01-29T01:43:54.596Z,102114.66
2023-01-29T01:46:21.805Z,102128.81
2023-01-29T01:48:52.868Z,102121.44
2023-01-29T01:51:20.585Z,102114.22
2023-01-29T01:53:54.099Z,102119.06
2023-01-29T01:56:28.394Z,102119.38
2023-01-29T01:58:56.877Z,102108.53
2023-01-29T02:01:30.755Z,102114.09
2023-01-29T02:04:23.839Z,102107.81
2023-01-29T02:07:09.766Z,102108.09
2023-01-29T02:09:40.892Z,102096.09
2023-01-29T02:12:09.775Z,102098.78
2023-01-29T02:14:39.468Z,102096.09
2023-01-29T02:17:11.964Z,102087.69
2023-01-29T02:20:24.459Z,102089.63
2023-01-29T02:23:12.767Z,102091.28
2023-01-29T02:26:06.582Z,102086.16
2023-01-29T02:28:48.911Z,102076.09
2023-01-29T02:31:29.570Z,102063.19
2023-01-29T02:34:21.558Z,102075.81
2023-01-29T02:37:05.205Z,102082.84
2023-01-29T02:39:38.418Z,102082.56
2023-01-29T02:42:27.359Z,102079.25
2023-01-29T02:45:12.815Z,102076.84
2023-01-29T02:47:48.986Z,102071.00
2023-01-29T02:50:20.719Z,102072.78
2023-01-29T02:53:08.582Z,102075.50
2023-01-29T02:55:49.889Z,102082.41
2023-01-29T02:58:29.330Z,102085.28
2023-01-29T03:01:00.478Z,102089.50
2023-01-29T03:03:31.771Z,102089.78
2023-01-29T03:06:07.750Z,102095.94
2023-01-29T03:08:43.043Z,102099.69
2023-01-29T03:11:14.261Z,102098.91
2023-01-29T03:13:45.602Z,102092.31
2023-01-29T03:16:40.757Z,102096.84
2023-01-29T03:19:21.196Z,102100.44
2023-01-29T03:21:51.611Z,102099.81
2023-01-29T03:24:48.231Z,102102.81
2023-01-29T03:27:33.895Z,102099.81
2023-01-29T03:30:19.443Z,102089.00
2023-01-29T03:32:47.016Z,102083.13
2023-01-29T03:35:14.449Z,102082.38
2023-01-29T03:37:46.810Z,102085.22
2023-01-29T03:40:13.905Z,102082.66
2023-01-29T03:43:11.024Z,102083.09
2023-01-29T03:45:46.584Z,102075.28
2023-01-29T03:48:33.965Z,102071.81
2023-01-29T03:51:16.011Z,102074.53
2023-01-29T03:54:11.558Z,102073.03
2023-01-29T03:56:51.550Z,102070.78
2023-01-29T03:59:26.129Z,102070.00
2023-01-29T04:01:53.792Z,102061.59
2023-01-29T04:04:33.164Z,102060.69
2023-01-29T04:07:15.381Z,102063.25
2023-01-29T04:09:57.790Z,102058.28
2023-01-29T04:12:30.843Z,102050.63
2023-01-29T04:15:00.094Z,102039.63
2023-01-29T04:17:34.855Z,102032.72
2023-01-29T04:20:01.538Z,102027.88
2023-01-29T04:22:36.414Z,102020.97
2023-01-29T04:25:08.337Z,102014.06
2023-01-29T04:27:45.694Z,102007.16
2023-01-29T04:30:35.840Z,102007.78
2023-01-29T04:33:20.667Z,102013.94
2023-01-29T04:36:08.275Z,102007.91
2023-01-29T04:38:56.466Z,102009.72
2023-01-29T04:41:38.010Z,102007.16
2023-01-29T04:44:26.499Z,101998.31
2023-01-29T04:46:59.751Z,101982.84
2023-01-29T04:49:42.484Z,101970.06
2023-01-29T04:52:43.666Z,101968.09
2023-01-29T04:55:19.517Z,101972.00
2023-01-29T04:57:57.111Z,101970.22
2023-01-29T05:00:28.726Z,101963.59
2023-01-29T05:02:56.562Z,101966.28
2023-01-29T05:05:23.023Z,101956.97
2023-01-29T05:07:49.717Z,101950.38
2023-01-29T05:10:18.777Z,101945.53
2023-01-29T05:12:49.735Z,101943.13
2023-01-29T05:15:20.576Z,101947.47
2023-01-29T05:17:47.006Z,101945.06
2023-01-29T05:20:13.728Z,101949.41
2023-01-29T05:22:41.654Z,101942.78
2023-01-29T05:25:23.865Z,101945.47
2023-01-29T05:28:10.309Z,101942.34
2023-01-29T05:30:37.943Z,101936.47
2023-01-29T05:33:05.483Z,101946.69
2023-01-29T05:35:32.092Z,101941.56
2023-01-29T05:37:58.745Z,101942.34
2023-01-29T05:40:25.546Z,101933.91
2023-01-29T05:42:52.171Z,101934.66
2023-01-29T05:45:18.811Z,101933.75
2023-01-29T05:47:45.813Z,101927.13
2023-01-29T05:50:13.043Z,101931.34
2023-01-29T05:52:40.162Z,101944.56
2023-01-29T05:55:08.099Z,101951.47
2023-01-29T05:57:34.536Z,101961.72
2023-01-29T06:00:00.963Z,101957.34
2023-01-29T06:02:30.719Z,101965.66
2023-01-29T06:04:57.395Z,101966.25
2023-01-29T06:07:23.808Z,101968.97
2023-01-29T06:09:50.247Z,101969.84
2023-01-29T06:12:16.674Z,101971.50
2023-01-29T06:14:43.078Z,101982.63
2023-01-29T06:17:09.483Z,101995.41
2023-01-29T06:19:35.892Z,102003.38
2023-01-29T06:22:02.307Z,102016.28
2023-01-29T06:24:28.756Z,102012.25
2023-01-29T06:26:55.223Z,102026.97
2023-01-29T06:29:21.626Z,102023.03
2023-01-29T06:31:48.112Z,102020.75
2023-01-29T06:34:14.577Z,102028.44
2023-01-29T06:36:41.802Z,102026.19
2023-01-29T06:39:08.202Z,102020.91
2023-01-29T06:41:34.693Z,102029.66
2023-01-29T06:44:01.163Z,102025.44
2023-01-29T06:46:27.627Z,102027.38
2023-01-29T06:48:54.041Z,102026.34
2023-01-29T06:51:22.888Z,102022.13
2023-01-29T06:53:49.358Z,102016.88
2023-01-29T06:56:15.831Z,102028.13
2023-01-29T06:58:43.480Z,102028.13
2023-01-29T07:01:15.529Z,102024.81
2023-01-29T07:03:52.008Z,102017.28
2023-01-29T07:06:18.958Z,102022.69
2023-01-29T07:08:45.590Z,102014.88
2023-01-29T07:11:12.551Z,102015.00
2023-01-29T07:13:38.987Z,102014.25
2023-01-29T07:16:06.721Z,102010.94
2023-01-29T07:18:33.195Z,102000.84
2023-01-29T07:20:59.616Z,101997.38
2023-01-29T07:23:26.080Z,102005.19
2023-01-29T07:25:52.511Z,102001.28
2023-01-29T07:28:20.360Z,102007.56
2023-01-29T07:30:46.871Z,102004.25
2023-01-29T07:33:13.278Z,101988.28
2023-01-29T07:35:41.950Z,101987.41
2023-01-29T07:38:09.609Z,102007.09
2023-01-29T07:40:36.457Z,102007.22
2023-01-29T07:43:08.150Z,102009.03
2023-01-29T07:45:35.993Z,102023.78
2023-01-29T07:48:04.193Z,102038.38
2023-01-29T07:50:31.184Z,102042.72
2023-01-29T07:52:57.644Z,102038.78
2023-01-29T07:55:24.480Z,102023.44
2023-01-29T07:58:02.239Z,102011.41
2023-01-29T08:00:30.236Z,101996.97
2023-01-29T08:03:07.463Z,101986.09
2023-01-29T08:05:34.063Z,101981.00
2023-01-29T08:08:06.854Z,101971.66
2023-01-29T08:10:35.129Z,101970.88
2023-01-29T08:13:02.144Z,101955.41
2023-01-29T08:15:28.746Z,101970.88
2023-01-29T08:20:41.596Z,101977.63
2023-01-29T08:23:12.702Z,101977.75
2023-01-29T08:25:39.182Z,101971.25
2023-01-29T08:28:05.817Z,101963.88
2023-01-29T08:30:33.595Z,101965.19
2023-01-29T08:33:00.444Z,101953.91
2023-01-29T08:35:27.462Z,101955.34
2023-01-29T08:38:02.006Z,101947.03
2023-01-29T08:40:31.767Z,101933.47
2023-01-29T08:43:02.001Z,101940.69
2023-01-29T08:45:30.074Z,101940.97
2023-01-29T08:47:56.485Z,101950.44
2023-01-29T08:50:22.890Z,101946.34
2023-01-29T08:52:49.303Z,101951.59
2023-01-29T08:55:16.025Z,101948.44
2023-01-29T08:57:42.661Z,101947.81
2023-01-29T09:00:10.595Z,101947.19
2023-01-29T09:02:37.804Z,101954.22
2023-01-29T09:05:04.673Z,101953.88
2023-01-29T09:07:31.119Z,101960.31
2023-01-29T09:09:57.519Z,101960.84
2023-01-29T09:12:24.021Z,101959.63
2023-01-29T09:14:50.455Z,101954.75
2023-01-29T09:17:16.958Z,101960.13
2023-01-29T09:19:43.375Z,101952.59
2023-01-29T09:22:11.838Z,101950.28
2023-01-29T09:24:38.494Z,101946.22
2023-01-29T09:27:05.360Z,101938.66
2023-01-29T09:29:33.527Z,101939.56
2023-01-29T09:32:01.171Z,101931.25
2023-01-29T09:34:27.564Z,101928.03
2023-01-29T09:36:53.988Z,101923.81
2023-01-29T09:39:20.399Z,101923.81
2023-01-29T09:42:06.608Z,101914.88
2023-01-29T09:45:00.296Z,101914.38
2023-01-29T09:47:27.780Z,101908.88
2023-01-29T09:50:05.656Z,101899.78
2023-01-29T09:52:45.691Z,101897.50
2023-01-29T09:55:27.652Z,101895.06
2023-01-29T09:58:06.075Z,101895.97
2023-01-29T10:00:54.102Z,101919.03
2023-01-29T10:03:47.340Z,101920.81
2023-01-29T10:06:36.745Z,101919.28
2023-01-29T10:09:28.962Z,101905.69
2023-01-29T10:12:20.175Z,101905.19
2023-01-29T10:14:57.206Z,101887.53
2023-01-29T10:18:10.028Z,101872.41
2023-01-29T10:20:45.460Z,101874.19
2023-01-29T10:23:23.372Z,101877.00
2023-01-29T10:25:50.057Z,101880.09
2023-01-29T10:28:46.280Z,101887.28
2023-01-29T10:31:17.801Z,101895.47
2023-01-29T10:34:01.985Z,101887.16
2023-01-29T10:36:49.021Z,101875.75
2023-01-29T10:39:20.767Z,101858.94
2023-01-29T10:42:14.695Z,101861.38
2023-01-29T10:45:05.753Z,101866.22
2023-01-29T10:48:09.325Z,101856.38
2023-01-29T10:50:49.094Z,101847.88
2023-01-29T10:53:24.588Z,101848.66
2023-01-29T10:56:10.736Z,101848.78
2023-01-29T10:58:55.737Z,101845.56
2023-01-29T11:01:22.260Z,101849.28
2023-01-29T11:04:03.433Z,101850.94
2023-01-29T11:06:31.295Z,101862.88
2023-01-29T11:09:48.919Z,101861.72
2023-01-29T11:12:23.724Z,101858.28
2023-01-29T11:14:53.134Z,101851.84
2023-01-29T11:17:23.209Z,101845.94
2023-01-29T11:19:51.628Z,101842.34
2023-01-29T11:22:20.263Z,101833.88
2023-01-29T11:24:47.609Z,101826.97
2023-01-29T11:27:25.934Z,101825.94
2023-01-29T11:29:53.329Z,101822.34
2023-01-29T11:32:22.731Z,101829.69
2023-01-29T11:35:02.228Z,101821.22
2023-01-29T11:37:37.489Z,101815.97
2023-01-29T11:40:19.437Z,101811.34
2023-01-29T11:42:46.872Z,101808.63
2023-01-29T11:45:33.863Z,101810.84
2023-01-29T11:48:00.628Z,101797.00
2023-01-29T11:50:29.556Z,101788.28
2023-01-29T11:52:56.072Z,101777.13
2023-01-29T11:55:24.256Z,101786.75
2023-01-29T11:57:54.100Z,101784.53
2023-01-29T12:00:23.863Z,101779.66
2023-01-29T12:03:15.654Z,101773.63
2023-01-29T12:05:53.779Z,101771.84
2023-01-29T12:08:22.853Z,101764.50
2023-01-29T12:10:49.655Z,101762.97
2023-01-29T12:13:25.234Z,101756.94
2023-01-29T12:16:06.531Z,101759.63
2023-01-29T12:18:38.337Z,101753.84
2023-01-29T12:21:10.294Z,101754.75
2023-01-29T12:23:53.093Z,101748.84
2023-01-29T12:26:27.797Z,101743.59
2023-01-29T12:29:51.718Z,101738.47
2023-01-29T12:32:37.988Z,101734.88
2023-01-29T12:35:16.228Z,101727.94
2023-01-29T12:37:51.032Z,101719.59
2023-01-29T12:40:18.979Z,101717.94
2023-01-29T12:42:48.832Z,101703.66
2023-01-29T12:45:21.262Z,101700.31
2023-01-29T12:47:51.941Z,101694.19
2023-01-29T12:50:22.445Z,101694.31
2023-01-29T12:53:02.511Z,101691.50
2023-01-29T12:55:34.770Z,101699.44
2023-01-29T12:58:06.167Z,101689.03
2023-01-29T13:00:34.630Z,101689.81
2023-01-29T13:03:10.137Z,101685.59
2023-01-29T13:05:44.592Z,101692.28
2023-01-29T13:08:17.632Z,101690.47
2023-01-29T13:10:48.681Z,101684.44
2023-01-29T13:13:27.821Z,101693.72
2023-01-29T13:15:55.559Z,101690.25
2023-01-29T13:18:44.011Z,101695.38
2023-01-29T13:21:14.399Z,101694.88
2023-01-29T13:23:44.971Z,101695.75
2023-01-29T13:26:13.831Z,101693.31
2023-01-29T13:28:40.601Z,101684.59
2023-01-29T13:31:26.818Z,101693.31
2023-01-29T13:34:07.134Z,101683.94
2023-01-29T13:36:34.168Z,101682.28
2023-01-29T13:39:04.522Z,101685.88
2023-01-29T13:41:33.482Z,101678.19
2023-01-29T13:44:00.074Z,101682.53
2023-01-29T13:46:26.536Z,101685.34
2023-01-29T13:48:55.134Z,101675.97
2023-01-29T13:51:22.876Z,101671.75
2023-01-29T13:53:58.586Z,101670.44
2023-01-29T13:56:33.909Z,101663.50
2023-01-29T13:59:02.181Z,101663.50
2023-01-29T14:01:46.813Z,101653.66
2023-01-29T14:04:19.297Z,101650.22
2023-01-29T14:06:48.300Z,101644.84
2023-01-29T14:09:36.844Z,101642.91
2023-01-29T14:12:05.025Z,101640.22
2023-01-29T14:15:21.517Z,101642.00
2023-01-29T14:17:56.183Z,101643.56
2023-01-29T14:20:39.085Z,101640.22
2023-01-29T14:23:24.283Z,101643.78
2023-01-29T14:25:50.820Z,101643.78
2023-01-29T14:28:23.036Z,101644.06
2023-01-29T14:30:50.188Z,101647.63
2023-01-29T14:33:37.845Z,101638.28
2023-01-29T14:36:07.159Z,101639.16
2023-01-29T14:38:33.941Z,101640.97
2023-01-29T14:41:07.748Z,101635.81
2023-01-29T14:43:34.250Z,101638.50
2023-01-29T14:46:35.912Z,101639.16
2023-01-29T14:49:02.882Z,101625.84
2023-01-29T14:51:34.726Z,101629.44
2023-01-29T14:54:23.120Z,101625.84
2023-01-29T14:56:59.511Z,101623.94
2023-01-29T14:59:37.908Z,101626.38
2023-01-29T15:02:14.437Z,101615.09
2023-01-29T15:04:49.548Z,101613.31
2023-01-29T15:07:23.714Z,101614.75
2023-01-29T15:10:21.443Z,101605.78
2023-01-29T15:12:52.699Z,101599.53
2023-01-29T15:15:44.992Z,101599.28
2023-01-29T15:18:42.487Z,101605.06
2023-01-29T15:21:13.876Z,101599.56
2023-01-29T15:23:44.195Z,101589.53
2023-01-29T15:26:22.258Z,101586.97
2023-01-29T15:29:03.097Z,101588.28
2023-01-29T15:31:30.671Z,101576.00
2023-01-29T15:33:57.243Z,101569.75
2023-01-29T15:36:25.813Z,101564.47
2023-01-29T15:39:15.499Z,101560.13
2023-01-29T15:41:42.645Z,101548.63
2023-01-29T15:44:21.112Z,101554.75
2023-01-29T15:46:55.944Z,101556.06
2023-01-29T15:49:30.407Z,101550.81
2023-01-29T15:51:58.975Z,101547.38
2023-01-29T15:54:26.629Z,101544.03
2023-01-29T15:56:53.934Z,101540.69
2023-01-29T15:59:26.431Z,101537.09
2023-01-29T16:01:56.344Z,101534.53
2023-01-29T16:04:31.343Z,101533.50
2023-01-29T16:06:59.075Z,101528.25
2023-01-29T16:09:26.502Z,101531.59
2023-01-29T16:11:54.665Z,101530.47
2023-01-29T16:14:23.206Z,101526.00
2023-01-29T16:16:49.723Z,101531.00
2023-01-29T16:19:29.457Z,101532.56
2023-01-29T16:22:01.198Z,101524.88
2023-01-29T16:24:28.534Z,101517.19
2023-01-29T16:27:01.022Z,101518.97
2023-01-29T16:29:32.008Z,101506.25
2023-01-29T16:32:01.976Z,101505.38
2023-01-29T16:34:45.457Z,101509.72
2023-01-29T16:37:24.975Z,101506.25
2023-01-29T16:39:55.296Z,101513.06
2023-01-29T16:42:29.441Z,101508.94
2023-01-29T16:45:01.301Z,101505.38
2023-01-29T16:47:41.361Z,101508.16
2023-01-29T16:50:36.186Z,101507.41
2023-01-29T16:53:18.148Z,101502.28
2023-01-29T16:55:46.921Z,101492.69
2023-01-29T16:58:16.441Z,101492.56
2023-01-29T17:00:45.254Z,101489.22
2023-01-29T17:03:12.637Z,101489.09
2023-01-29T17:05:39.064Z,101477.06
2023-01-29T17:08:06.205Z,101475.41
2023-01-29T17:10:33.115Z,101472.56
2023-01-29T17:13:08.175Z,101467.16
2023-01-29T17:15:45.839Z,101469.19
2023-01-29T17:18:23.916Z,101467.28
2023-01-29T17:20:50.814Z,101462.81
2023-01-29T17:23:17.262Z,101452.56
2023-01-29T17:25:44.464Z,101453.47
2023-01-29T17:28:13.035Z,101447.44
2023-01-29T17:30:39.524Z,101446.66
2023-01-29T17:33:11.574Z,101445.66
2023-01-29T17:35:37.971Z,101441.41
2023-01-29T17:38:07.447Z,101433.63
2023-01-29T17:40:42.575Z,101428.50
2023-01-29T17:43:11.634Z,101430.41
2023-01-29T17:45:39.046Z,101415.78
2023-01-29T17:48:14.631Z,101420.25
2023-01-29T17:50:48.275Z,101414.34
2023-01-29T17:53:15.728Z,101415.38
2023-01-29T17:55:42.232Z,101403.56
2023-01-29T17:58:23.046Z,101401.09
2023-01-29T18:00:49.728Z,101396.91
2023-01-29T18:03:16.375Z,101390.75
2023-01-29T18:05:44.069Z,101391.53
2023-01-29T18:08:19.656Z,101382.81
2023-01-29T18:10:46.557Z,101388.72
2023-01-29T18:13:13.693Z,101386.81
2023-01-29T18:15:40.120Z,101384.03
2023-01-29T18:18:06.587Z,101393.63
2023-01-29T18:20:36.641Z,101397.09
2023-01-29T18:23:04.267Z,101387.59
2023-01-29T18:25:31.150Z,101387.59
2023-01-29T18:27:57.796Z,101389.94
2023-01-29T18:30:24.350Z,101394.16
2023-01-29T18:32:50.918Z,101389.03
2023-01-29T18:35:17.683Z,101385.22
2023-01-29T18:37:44.559Z,101380.75
2023-01-29T18:40:17.010Z,101377.19
2023-01-29T18:42:47.186Z,101379.75
2023-01-29T18:45:14.052Z,101380.63
2023-01-29T18:47:40.603Z,101373.59
2023-01-29T18:50:07.967Z,101379.38
2023-01-29T18:52:34.491Z,101370.66
2023-01-29T18:55:03.824Z,101367.22
2023-01-29T18:58:26.771Z,101357.84
2023-01-29T19:00:16.959Z,101359.63
2023-01-29T19:02:45.147Z,101356.44
2023-01-29T19:05:11.668Z,101350.44
2023-01-29T19:07:38.106Z,101354.22
2023-01-29T19:10:06.798Z,101353.09
2023-01-29T19:12:34.294Z,101342.75
2023-01-29T19:15:00.949Z,101356.69
2023-01-29T19:17:27.714Z,101353.09
2023-01-29T19:19:56.419Z,101348.88
2023-01-29T19:22:22.931Z,101345.31
2023-01-29T19:24:49.360Z,101343.75
2023-01-29T19:27:15.773Z,101340.41
2023-01-29T19:29:42.387Z,101340.41
2023-01-29T19:32:08.945Z,101336.19
2023-01-29T19:34:35.366Z,101330.50
2023-01-29T19:37:01.798Z,101326.94
2023-01-29T19:39:33.599Z,101311.44
2023-01-29T19:42:01.063Z,101291.25
2023-01-29T19:44:27.897Z,101286.91
2023-01-29T19:46:54.339Z,101283.81
2023-01-29T19:49:20.756Z,101286.50
2023-01-29T19:51:47.296Z,101282.03
2023-01-29T19:54:13.721Z,101279.22
2023-01-29T19:56:40.148Z,101278.44
2023-01-29T19:59:07.333Z,101273.44
2023-01-29T20:01:33.854Z,101263.97
2023-01-29T20:04:00.305Z,101271.78
2023-01-29T20:06:30.879Z,101269.97
2023-01-29T20:08:57.858Z,101266.41
2023-01-29T20:11:24.788Z,101262.16
2023-01-29T20:13:52.133Z,101251.94
2023-01-29T20:16:19.230Z,101251.03
2023-01-29T20:18:45.754Z,101240.78
2023-01-29T20:21:14.823Z,101238.34
2023-01-29T20:23:42.197Z,101227.47
2023-01-29T20:26:14.487Z,101220.28
2023-01-29T20:28:41.566Z,101211.94
2023-01-29T20:31:09.327Z,101212.09
2023-01-29T20:33:39.013Z,101222.44
2023-01-29T20:36:09.002Z,101209.16
2023-01-29T20:38:35.877Z,101196.47
2023-01-29T20:41:13.465Z,101200.81
2023-01-29T20:43:40.444Z,101182.88
2023-01-29T20:46:06.885Z,101167.28
2023-01-29T20:48:33.582Z,101163.81
2023-01-29T20:51:08.025Z,101153.69
2023-01-29T20:53:34.973Z,101147.00
2023-01-29T20:56:04.193Z,101145.22
2023-01-29T20:58:30.866Z,101134.53
2023-01-29T21:00:57.889Z,101133.66
2023-01-29T21:03:25.602Z,101128.41
2023-01-29T21:05:52.315Z,101121.41
2023-01-29T21:08:18.767Z,101113.47
2023-01-29T21:10:45.715Z,101122.03
2023-01-29T21:13:12.308Z,101107.22
2023-01-29T21:15:38.780Z,101101.22
2023-01-29T21:18:06.483Z,101101.22
2023-01-29T21:20:32.943Z,101079.06
2023-01-29T21:23:00.995Z,101073.81
2023-01-29T21:25:27.522Z,101069.47
2023-01-29T21:27:53.974Z,101069.38
2023-01-29T21:30:20.657Z,101052.44
2023-01-29T21:32:47.438Z,101070.25
2023-01-29T21:35:14.964Z,101055.00
2023-01-29T21:37:41.917Z,101064.34
2023-01-29T21:40:09.277Z,101053.00
2023-01-29T21:42:54.278Z,101047.88
2023-01-29T21:45:20.746Z,101052.22
2023-01-29T21:47:47.336Z,101059.91
2023-01-29T21:50:14.033Z,101063.88
2023-01-29T21:52:40.547Z,101062.34
2023-01-29T21:55:07.350Z,101056.97
2023-01-29T21:57:33.740Z,101053.00
2023-01-29T22:00:00.167Z,101054.78
2023-01-29T22:02:27.648Z,101048.00
2023-01-29T22:05:08.927Z,101045.31
2023-01-29T22:07:42.709Z,101036.28
2023-01-29T22:10:10.218Z,101048.09
2023-01-29T22:12:36.713Z,101034.31
2023-01-29T22:15:03.283Z,101021.59
2023-01-29T22:17:29.689Z,101017.38
2023-01-29T22:19:56.149Z,101015.59
2023-01-29T22:22:22.841Z,101025.63
2023-01-29T22:24:50.775Z,101008.69
2023-01-29T22:27:17.173Z,101008.69
2023-01-29T22:29:43.628Z,101007.81
2023-01-29T22:32:10.645Z,100994.00
2023-01-29T22:34:37.149Z,100999.34
2023-01-29T22:37:03.567Z,101001.13
2023-01-29T22:39:30.006Z,101000.00
2023-01-29T22:41:56.413Z,100988.22
2023-01-29T22:44:22.851Z,100982.88
2023-01-29T22:46:49.502Z,100972.63
2023-01-29T22:49:15.942Z,100960.56
2023-01-29T22:51:42.341Z,100962.38
2023-01-29T22:54:08.788Z,100964.16
2023-01-29T22:56:35.206Z,100957.38
2023-01-29T22:59:01.736Z,100965.69
2023-01-29T23:01:30.176Z,100955.69
2023-01-29T23:03:56.803Z,100955.69
2023-01-29T23:06:23.659Z,100945.47
2023-01-29T23:08:50.566Z,100940.22
2023-01-29T23:11:20.410Z,100935.53
2023-01-29T23:13:54.589Z,100941.34
2023-01-29T23:16:23.145Z,100920.75
2023-01-29T23:18:51.796Z,100932.88
2023-01-29T23:21:18.471Z,100922.72
2023-01-29T23:23:45.295Z,100925.41
2023-01-29T23:26:31.871Z,100913.59
2023-01-29T23:28:58.503Z,100910.91
2023-01-29T23:31:25.306Z,100911.81
2023-01-29T23:33:51.795Z,100906.59
2023-01-29T23:36:18.206Z,100891.31
2023-01-29T23:38:44.627Z,100885.22
2023-01-29T23:41:11.032Z,100886.09
2023-01-29T23:43:37.537Z,100875.97
2023-01-29T23:46:03.965Z,100877.75
2023-01-29T23:48:30.377Z,100878.63
2023-01-29T23:50:56.813Z,100864.16
2023-01-29T23:53:23.239Z,100860.16
2023-01-29T23:56:00.976Z,100838.00
2023-01-29T23:58:28.294Z,100839.78
